SBCG/CGR METAR and TAF weather

Enter ICAO airport designator
Station Type Date Time Source
SBCG METAR 2019/12/14 19:00 UTC NOAA

SBCG 141900Z 18008KT 160V240 9999 TS SCT035 FEW048CB SCT070 25/22 Q1013


Station Type Date Time Source
SBCG Decoded METAR 2019/12/14 19:00 UTC NOAA

Campo Grande Aeroporto , Brazil (SBCG) 20-28S 054-40W 567M
Dec 14, 2019 - 02:00 PM EST / 2019.12.14 1900 UTC
Wind: from the S (180 degrees) at 9 MPH (8 KT) (direction variable):0
Visibility: greater than 7 mile(s):0
Sky conditions: partly cloudy
Weather: thunder; Cumulonimbus clouds observed
Temperature: 77 F (25 C)
Dew Point: 71 F (22 C)
Relative Humidity: 83%
Pressure (altimeter): 29.91 in. Hg (1013 hPa)
ob: SBCG 141900Z 18008KT 160V240 9999 TS SCT035 FEW048CB SCT070 25/22 Q1013
cycle: 19

Station Type Date Time Source
SBCG TAF 2019/12/14 18:09 UTC NOAA

TAF TAF SBCG 141500Z 1418/1518 03009KT 9999 SCT040 FEW045TCU TX33/1418Z TN24/1508Z PROB40
TEMPO 1419/1421 VCSH
BECMG 1500/1502 07006KT CAVOK
BECMG 1512/1514 04010KT 9999 SCT040 FEW045TCU
RMK PER

Example: see airport list